createdAt,value
2018-07-19T00:01:56.542Z,50.86
2018-07-19T00:04:24.690Z,51.55
2018-07-19T00:06:52.662Z,51.71
2018-07-19T00:09:21.004Z,51.12
2018-07-19T00:11:48.977Z,51.17
2018-07-19T00:14:17.455Z,51.45
2018-07-19T00:16:45.755Z,51.60
2018-07-19T00:19:13.702Z,51.52
2018-07-19T00:21:42.075Z,51.11
2018-07-19T00:24:10.486Z,51.03
2018-07-19T00:26:38.829Z,51.23
2018-07-19T00:29:07.405Z,50.99
2018-07-19T00:31:35.819Z,51.25
2018-07-19T00:34:04.165Z,50.93
2018-07-19T00:36:32.332Z,51.28
2018-07-19T00:39:00.849Z,50.92
2018-07-19T00:41:29.183Z,50.90
2018-07-19T00:43:57.776Z,51.21
2018-07-19T00:46:26.149Z,50.84
2018-07-19T00:48:54.534Z,51.93
2018-07-19T00:51:23.000Z,51.32
2018-07-19T00:53:51.525Z,51.19
2018-07-19T00:56:19.978Z,51.16
2018-07-19T00:58:48.249Z,51.40
2018-07-19T01:01:16.564Z,51.91
2018-07-19T01:03:44.898Z,51.61
2018-07-19T01:06:13.278Z,51.41
2018-07-19T01:08:41.670Z,51.97
2018-07-19T01:11:10.238Z,51.13
2018-07-19T01:13:38.513Z,51.12
2018-07-19T01:16:07.027Z,51.15
2018-07-19T01:18:35.265Z,51.24
2018-07-19T01:21:03.247Z,51.50
2018-07-19T01:23:31.552Z,50.90
2018-07-19T01:25:59.785Z,51.75
2018-07-19T01:28:27.842Z,51.77
2018-07-19T01:30:56.286Z,51.11
2018-07-19T01:33:24.610Z,51.21
2018-07-19T01:35:52.898Z,51.91
2018-07-19T01:38:21.274Z,51.57
2018-07-19T01:40:49.750Z,51.23
2018-07-19T01:43:18.165Z,51.68
2018-07-19T01:45:46.502Z,51.36
2018-07-19T01:48:14.877Z,51.56
2018-07-19T01:50:43.395Z,51.07
2018-07-19T01:53:11.837Z,51.42
2018-07-19T01:55:40.117Z,51.62
2018-07-19T01:58:08.493Z,51.50
2018-07-19T02:00:36.873Z,51.76
2018-07-19T02:03:05.290Z,52.80
2018-07-19T02:05:33.526Z,51.55
2018-07-19T02:08:02.015Z,52.09
2018-07-19T02:10:30.281Z,52.15
2018-07-19T02:12:58.665Z,51.79
2018-07-19T02:15:27.141Z,51.98
2018-07-19T02:17:55.455Z,52.38
2018-07-19T02:20:23.789Z,52.36
2018-07-19T02:22:51.749Z,52.47
2018-07-19T02:25:20.037Z,52.51
2018-07-19T02:27:48.318Z,52.98
2018-07-19T02:30:16.276Z,52.82
2018-07-19T02:32:44.561Z,52.97
2018-07-19T02:35:13.075Z,53.45
2018-07-19T02:37:41.411Z,53.57
2018-07-19T02:40:09.896Z,53.51
2018-07-19T02:42:38.218Z,52.77
2018-07-19T02:45:06.551Z,53.14
2018-07-19T02:47:34.791Z,53.04
2018-07-19T02:50:03.241Z,55.14
2018-07-19T02:52:31.585Z,53.01
2018-07-19T02:54:59.862Z,52.63
2018-07-19T02:57:28.229Z,52.47
2018-07-19T02:59:56.541Z,51.96
2018-07-19T03:02:24.987Z,51.85
2018-07-19T03:04:53.471Z,52.76
2018-07-19T03:07:21.781Z,52.72
2018-07-19T03:09:50.124Z,52.23
2018-07-19T03:12:18.392Z,52.36
2018-07-19T03:14:47.015Z,53.08
2018-07-19T03:17:15.354Z,53.16
2018-07-19T03:19:43.635Z,52.95
2018-07-19T03:22:12.010Z,53.17
2018-07-19T03:24:39.941Z,53.47
2018-07-19T03:27:07.836Z,53.76
2018-07-19T03:29:35.753Z,53.85
2018-07-19T03:32:03.685Z,53.43
2018-07-19T03:34:32.103Z,53.60
2018-07-19T03:37:00.442Z,54.24
2018-07-19T03:39:28.548Z,54.01
2018-07-19T03:41:56.882Z,54.25
2018-07-19T03:44:25.156Z,53.98
2018-07-19T03:46:53.541Z,54.45
2018-07-19T03:49:21.913Z,54.53
2018-07-19T03:51:50.298Z,54.91
2018-07-19T03:54:18.882Z,54.62
2018-07-19T03:56:46.851Z,54.76
2018-07-19T03:59:14.825Z,54.92
2018-07-19T04:01:42.775Z,55.05
2018-07-19T04:04:10.678Z,54.37
2018-07-19T04:06:38.590Z,54.42
2018-07-19T04:09:07.126Z,54.62
2018-07-19T04:11:35.067Z,54.32
2018-07-19T04:14:03.143Z,54.12
2018-07-19T04:16:31.197Z,54.27
2018-07-19T04:18:59.487Z,54.30
2018-07-19T04:21:27.966Z,53.90
2018-07-19T04:23:56.230Z,53.67
2018-07-19T04:26:24.609Z,53.50
2018-07-19T04:28:52.985Z,53.36
2018-07-19T04:31:20.902Z,53.45
2018-07-19T04:33:48.870Z,53.94
2018-07-19T04:36:16.789Z,53.36
2018-07-19T04:38:44.698Z,53.66
2018-07-19T04:41:13.030Z,53.39
2018-07-19T04:43:41.526Z,53.57
2018-07-19T04:46:09.459Z,53.27
2018-07-19T04:48:37.973Z,53.14
2018-07-19T04:51:06.390Z,53.32
2018-07-19T04:53:34.828Z,52.78
2018-07-19T04:56:03.200Z,53.01
2018-07-19T04:58:31.148Z,52.66
2018-07-19T05:00:59.547Z,52.78
2018-07-19T05:03:27.451Z,52.31
2018-07-19T05:05:55.349Z,52.09
2018-07-19T05:08:23.256Z,51.62
2018-07-19T05:10:51.526Z,51.73
2018-07-19T05:13:19.996Z,51.95
2018-07-19T05:15:48.273Z,51.09
2018-07-19T05:18:16.549Z,51.50
2018-07-19T05:20:44.483Z,51.32
2018-07-19T05:23:12.953Z,51.72
2018-07-19T05:43:14.256Z,52.30
2018-07-19T05:45:42.828Z,52.81
2018-07-19T05:48:11.109Z,51.93
2018-07-19T05:50:39.447Z,51.78
2018-07-19T05:53:07.664Z,52.41
2018-07-19T05:55:36.150Z,52.22
2018-07-19T05:58:04.326Z,51.97
2018-07-19T06:00:32.609Z,51.43
2018-07-19T06:03:00.865Z,51.14
2018-07-19T06:05:29.083Z,51.63
2018-07-19T06:07:57.426Z,51.25
2018-07-19T06:10:25.808Z,51.57
2018-07-19T06:12:54.281Z,52.10
2018-07-19T06:15:22.661Z,52.40
2018-07-19T06:17:51.132Z,52.92
2018-07-19T06:20:19.511Z,50.82
2018-07-19T06:22:47.995Z,51.24
2018-07-19T06:25:16.266Z,51.61
2018-07-19T06:27:44.656Z,51.11
2018-07-19T06:30:12.921Z,51.42
2018-07-19T06:32:41.306Z,51.45
2018-07-19T06:35:09.573Z,51.07
2018-07-19T06:37:38.061Z,51.83
2018-07-19T06:40:06.438Z,52.17
2018-07-19T06:42:34.913Z,52.38
2018-07-19T06:45:02.997Z,51.95
2018-07-19T06:47:31.370Z,51.69
2018-07-19T06:49:59.746Z,52.14
2018-07-19T06:52:28.125Z,52.01
2018-07-19T06:54:56.390Z,52.12
2018-07-19T06:57:24.788Z,52.24
2018-07-19T06:59:53.358Z,51.43
2018-07-19T07:02:21.625Z,52.07
2018-07-19T07:04:49.937Z,51.16
2018-07-19T07:07:18.272Z,51.56
2018-07-19T07:09:46.761Z,51.99
2018-07-19T07:12:15.125Z,51.95
2018-07-19T07:14:43.526Z,50.80
2018-07-19T07:17:11.917Z,50.92
2018-07-19T07:19:40.372Z,50.43
2018-07-19T07:22:08.655Z,50.59
2018-07-19T07:24:36.925Z,51.12
2018-07-19T07:27:05.203Z,51.90
2018-07-19T07:29:33.587Z,51.63
2018-07-19T07:32:01.957Z,51.81
2018-07-19T07:34:30.537Z,51.10
2018-07-19T07:36:58.863Z,51.54
2018-07-19T07:39:27.301Z,51.36
2018-07-19T07:41:55.769Z,51.51
2018-07-19T07:44:24.155Z,51.69
2018-07-19T07:46:52.526Z,51.64
2018-07-19T07:49:21.037Z,51.53
2018-07-19T07:51:49.588Z,51.11
2018-07-19T07:54:18.023Z,50.85
2018-07-19T07:56:46.561Z,51.17
2018-07-19T07:59:14.955Z,51.11
2018-07-19T08:01:43.200Z,51.04
2018-07-19T08:04:11.493Z,51.29
2018-07-19T08:06:39.971Z,50.56
2018-07-19T08:09:09.013Z,50.21
2018-07-19T08:11:37.386Z,50.59
2018-07-19T08:14:05.812Z,49.77
2018-07-19T08:16:34.193Z,50.30
2018-07-19T08:19:02.261Z,50.24
2018-07-19T08:21:30.857Z,50.06
2018-07-19T08:23:59.432Z,49.83
2018-07-19T08:26:27.585Z,49.86
2018-07-19T08:28:55.899Z,48.92
2018-07-19T08:31:24.362Z,49.79
2018-07-19T08:33:52.732Z,49.38
2018-07-19T08:36:21.162Z,49.98
2018-07-19T08:38:49.590Z,49.17
2018-07-19T08:41:18.070Z,48.41
2018-07-19T08:43:46.462Z,48.49
2018-07-19T08:46:14.933Z,48.82
2018-07-19T08:48:43.100Z,48.71
2018-07-19T08:51:11.700Z,48.65
2018-07-19T12:01:27.053Z,47.20
2018-07-19T12:03:55.526Z,47.12
2018-07-19T12:06:23.704Z,47.55
2018-07-19T12:08:51.985Z,47.63
2018-07-19T12:11:20.176Z,47.25
2018-07-19T12:13:48.753Z,46.76
2018-07-19T12:16:17.419Z,47.66
2018-07-19T12:18:45.681Z,47.37
2018-07-19T12:21:13.600Z,47.52
2018-07-19T12:23:41.946Z,47.46
2018-07-19T12:26:10.322Z,47.15
2018-07-19T12:28:38.503Z,47.79
2018-07-19T12:31:06.976Z,47.92
2018-07-19T12:33:35.251Z,48.39
2018-07-19T12:36:03.833Z,48.08
2018-07-19T12:38:32.201Z,47.71
2018-07-19T12:41:00.577Z,46.63
2018-07-19T12:43:28.866Z,47.20
2018-07-19T12:45:57.320Z,47.78
2018-07-19T12:48:25.609Z,47.35
2018-07-19T12:50:53.893Z,47.15
2018-07-19T12:53:22.261Z,46.78
2018-07-19T12:55:50.658Z,46.76
2018-07-19T12:58:18.930Z,46.71
2018-07-19T13:00:46.806Z,46.88
2018-07-19T13:03:15.174Z,46.62
2018-07-19T13:05:43.446Z,46.83
2018-07-19T13:08:11.823Z,46.54
2018-07-19T13:10:39.992Z,46.62
2018-07-19T13:13:08.578Z,46.12
2018-07-19T13:15:37.102Z,46.10
2018-07-19T13:18:05.443Z,46.90
2018-07-19T13:20:33.895Z,46.93
2018-07-19T13:23:02.037Z,47.14
2018-07-19T13:25:30.491Z,46.13
2018-07-19T13:27:58.950Z,46.62
2018-07-19T13:30:27.318Z,46.95
2018-07-19T13:32:55.502Z,46.72
2018-07-19T13:35:23.869Z,47.55
2018-07-19T13:37:52.149Z,47.32
2018-07-19T13:40:20.522Z,46.48
2018-07-19T13:42:48.807Z,46.90
2018-07-19T13:45:17.681Z,46.84
2018-07-19T13:47:46.073Z,47.15
2018-07-19T13:50:14.441Z,47.31
2018-07-19T13:52:53.726Z,46.68
2018-07-19T13:55:21.958Z,46.20
2018-07-19T13:57:50.337Z,46.80
2018-07-19T14:00:18.614Z,46.60
2018-07-19T14:02:47.006Z,47.01
2018-07-19T14:05:15.258Z,46.78
2018-07-19T14:07:43.541Z,46.81
2018-07-19T14:10:11.905Z,46.02
2018-07-19T14:12:40.186Z,46.73
2018-07-19T14:15:08.660Z,46.94
2018-07-19T14:17:36.942Z,47.32
2018-07-19T14:20:05.354Z,46.65
2018-07-19T14:22:33.797Z,47.29
2018-07-19T14:25:02.127Z,46.97
2018-07-19T14:27:30.462Z,46.65
2018-07-19T14:29:58.633Z,46.64
2018-07-19T14:32:26.798Z,45.80
2018-07-19T14:34:55.070Z,46.39
2018-07-19T14:37:23.560Z,46.71
2018-07-19T14:39:51.733Z,47.33
2018-07-19T14:42:20.094Z,48.26
2018-07-19T14:44:48.391Z,49.23
2018-07-19T14:47:16.427Z,50.48
2018-07-19T14:49:44.707Z,50.96
2018-07-19T14:52:13.013Z,50.25
2018-07-19T14:54:41.374Z,49.37
2018-07-19T14:57:09.562Z,49.61
2018-07-19T14:59:37.721Z,48.68
2018-07-19T15:02:05.602Z,47.91
2018-07-19T15:04:33.470Z,49.44
2018-07-19T15:07:01.729Z,49.13
2018-07-19T15:09:29.593Z,50.66
2018-07-19T15:11:57.492Z,49.94
2018-07-19T15:14:25.393Z,50.02
2018-07-19T15:16:53.647Z,48.85
2018-07-19T15:19:22.188Z,48.43
2018-07-19T15:21:50.466Z,48.50
2018-07-19T15:24:18.737Z,47.96
2018-07-19T15:26:47.022Z,48.10
2018-07-19T15:29:15.198Z,48.08
2018-07-19T15:31:43.573Z,48.31
2018-07-19T15:34:11.605Z,48.01
2018-07-19T15:36:39.881Z,48.11
2018-07-19T15:39:08.766Z,48.52
2018-07-19T15:41:37.191Z,48.02
2018-07-19T15:44:05.453Z,48.09
2018-07-19T15:46:33.737Z,47.81
2018-07-19T15:49:02.018Z,48.15
2018-07-19T15:51:30.002Z,48.25
2018-07-19T15:53:57.922Z,48.32
2018-07-19T15:56:25.833Z,49.04
2018-07-19T15:58:53.778Z,49.01
2018-07-19T16:01:22.068Z,49.08
2018-07-19T16:03:50.338Z,50.01
2018-07-19T16:06:18.709Z,49.80
2018-07-19T16:08:46.982Z,49.58
2018-07-19T16:11:15.258Z,49.96
2018-07-19T16:13:43.438Z,49.92
2018-07-19T16:16:11.706Z,50.44
2018-07-19T16:18:39.977Z,50.25
2018-07-19T16:21:08.162Z,50.79
2018-07-19T16:23:36.441Z,50.14
2018-07-19T16:26:04.939Z,50.82
2018-07-19T16:28:33.407Z,50.61
2018-07-19T16:31:01.878Z,50.46
2018-07-19T16:33:30.361Z,50.65
2018-07-19T16:35:58.539Z,50.49
2018-07-19T16:38:27.042Z,50.26
2018-07-19T16:40:55.354Z,50.55
2018-07-19T16:43:23.660Z,50.98
2018-07-19T16:45:51.942Z,51.22
2018-07-19T16:48:20.528Z,51.63
2018-07-19T16:50:48.691Z,51.76
2018-07-19T16:53:16.965Z,51.36
2018-07-19T16:55:45.039Z,51.24
2018-07-19T16:58:13.309Z,51.41
2018-07-19T17:00:41.503Z,52.35
2018-07-19T17:03:09.970Z,52.10
2018-07-19T17:05:38.350Z,52.66
2018-07-19T17:08:06.624Z,53.17
2018-07-19T17:10:34.889Z,55.58
2018-07-19T17:13:03.175Z,58.76
2018-07-19T17:15:31.354Z,62.56
2018-07-19T17:17:59.625Z,65.84
2018-07-19T17:20:27.993Z,66.57
2018-07-19T17:22:56.165Z,67.09
2018-07-19T17:25:24.352Z,66.67
2018-07-19T17:27:52.718Z,68.54
2018-07-19T17:30:20.994Z,70.30
2018-07-19T17:32:48.900Z,71.82
2018-07-19T17:35:17.239Z,74.53
2018-07-19T17:37:45.522Z,77.27
2018-07-19T17:40:13.889Z,79.62
2018-07-19T17:42:42.165Z,80.65
2018-07-19T17:45:10.542Z,81.09
2018-07-19T17:47:38.917Z,81.74
2018-07-19T17:50:07.461Z,80.15
2018-07-19T17:52:35.882Z,81.96
2018-07-19T17:55:04.157Z,79.51
2018-07-19T17:57:32.070Z,79.85
2018-07-19T18:00:00.502Z,78.15
2018-07-19T18:02:28.989Z,76.98
2018-07-19T18:04:57.158Z,74.92
2018-07-19T18:07:25.429Z,74.42
2018-07-19T18:09:53.704Z,74.43
2018-07-19T18:12:22.086Z,74.26
2018-07-19T18:14:50.352Z,75.85
2018-07-19T18:17:18.747Z,74.34
2018-07-19T18:19:46.919Z,73.64
2018-07-19T18:22:15.284Z,73.11
2018-07-19T18:24:43.622Z,72.71
2018-07-19T18:27:12.041Z,73.76
2018-07-19T18:29:40.338Z,72.84
2018-07-19T18:32:08.821Z,74.35
2018-07-19T18:34:37.186Z,72.96
2018-07-19T18:37:05.549Z,71.54
2018-07-19T18:39:33.829Z,73.01
2018-07-19T18:42:02.018Z,72.63
2018-07-19T18:44:30.389Z,70.66
2018-07-19T18:46:58.753Z,71.56
2018-07-19T18:49:26.933Z,70.73
2018-07-19T18:51:55.106Z,71.91
2018-07-19T18:54:23.494Z,69.99
2018-07-19T18:56:51.654Z,69.35
2018-07-19T18:59:20.146Z,67.98
2018-07-19T19:01:48.214Z,67.60
2018-07-19T19:04:16.481Z,67.95
2018-07-19T19:06:44.479Z,65.98
2018-07-19T19:09:12.727Z,67.15
2018-07-19T19:11:41.010Z,67.92
2018-07-19T19:14:09.494Z,67.47
2018-07-19T19:16:37.770Z,67.91
2018-07-19T19:19:06.245Z,67.06
2018-07-19T19:21:34.546Z,66.42
2018-07-19T19:24:02.898Z,66.64
2018-07-19T19:26:31.173Z,66.68
2018-07-19T19:28:59.098Z,66.06
2018-07-19T19:31:27.412Z,66.21
2018-07-19T19:33:55.686Z,65.98
2018-07-19T19:36:23.742Z,66.30
2018-07-19T19:38:52.149Z,66.25
2018-07-19T19:41:20.634Z,66.29
2018-07-19T19:43:49.103Z,66.20
2018-07-19T19:46:17.478Z,65.50
2018-07-19T19:48:45.864Z,65.14
2018-07-19T19:51:14.343Z,64.99
2018-07-19T19:53:42.704Z,64.50
2018-07-19T19:56:11.005Z,65.49
2018-07-19T19:58:39.259Z,65.74
2018-07-19T20:01:07.289Z,65.50
2018-07-19T20:03:35.627Z,65.13
2018-07-19T20:06:04.094Z,64.94
2018-07-19T20:08:32.482Z,65.07
2018-07-19T20:11:00.778Z,65.12
2018-07-19T20:13:29.335Z,64.12
2018-07-19T20:15:57.913Z,64.64
2018-07-19T20:18:26.242Z,64.85
2018-07-19T20:20:54.769Z,65.00
2018-07-19T20:23:23.170Z,64.81
2018-07-19T20:25:51.525Z,64.08
2018-07-19T20:28:20.254Z,63.95
2018-07-19T20:30:48.853Z,64.42
2018-07-19T20:33:17.487Z,63.70
2018-07-19T20:35:46.295Z,64.03
2018-07-19T20:38:14.783Z,64.13
2018-07-19T20:40:43.496Z,63.98
2018-07-19T20:43:12.195Z,64.36
2018-07-19T20:45:40.928Z,63.38
2018-07-19T20:48:09.774Z,63.81
2018-07-19T20:50:38.229Z,63.17
2018-07-19T20:53:06.810Z,63.16
2018-07-19T20:55:35.583Z,62.97
2018-07-19T20:58:04.254Z,63.81
2018-07-19T21:00:32.760Z,63.91
2018-07-19T21:03:01.415Z,63.76
2018-07-19T21:05:30.206Z,62.98
2018-07-19T21:07:58.813Z,63.68
2018-07-19T21:10:27.473Z,62.87
2018-07-19T21:12:56.254Z,63.34
2018-07-19T21:15:24.785Z,62.99
2018-07-19T21:17:53.448Z,62.91
2018-07-19T21:20:22.173Z,63.60
2018-07-19T21:22:50.726Z,62.50
2018-07-19T21:25:19.384Z,63.06
2018-07-19T21:27:48.082Z,63.47
2018-07-19T21:30:16.528Z,63.00
2018-07-19T21:32:45.095Z,62.38
2018-07-19T21:35:13.487Z,63.50
2018-07-19T21:37:41.649Z,62.58
2018-07-19T21:40:09.560Z,62.99
2018-07-19T21:42:37.898Z,63.35
2018-07-19T21:45:06.266Z,63.45
2018-07-19T21:47:34.314Z,63.54
2018-07-19T21:50:02.731Z,62.88
2018-07-19T21:52:30.989Z,63.30
2018-07-19T21:54:59.274Z,63.11
2018-07-19T21:57:28.461Z,62.98
2018-07-19T21:59:56.738Z,62.84
2018-07-19T22:02:25.018Z,63.12
2018-07-19T22:04:53.390Z,63.21
2018-07-19T22:07:21.766Z,62.83
2018-07-19T22:09:50.050Z,63.19
2018-07-19T22:12:18.393Z,62.81
2018-07-19T22:14:46.692Z,63.04
2018-07-19T22:17:15.087Z,62.47
2018-07-19T22:19:43.350Z,62.52
2018-07-19T22:22:11.529Z,62.62
2018-07-19T22:24:39.802Z,62.88
2018-07-19T22:27:08.085Z,62.72
2018-07-19T22:29:36.358Z,62.64
2018-07-19T22:32:04.730Z,62.13
2018-07-19T22:34:33.097Z,63.01
2018-07-19T22:37:01.388Z,62.30
2018-07-19T22:39:29.653Z,62.87
2018-07-19T22:41:57.698Z,62.93
2018-07-19T22:44:25.907Z,62.57
2018-07-19T22:46:54.264Z,62.56
2018-07-19T22:49:22.566Z,62.44
2018-07-19T22:51:50.930Z,62.77
2018-07-19T22:54:19.222Z,62.92
2018-07-19T22:56:47.581Z,62.90
2018-07-19T22:59:15.957Z,63.50
2018-07-19T23:01:44.229Z,63.53
2018-07-19T23:04:12.517Z,63.86
2018-07-19T23:06:40.785Z,63.43
2018-07-19T23:09:09.380Z,63.25
2018-07-19T23:11:37.646Z,63.86
2018-07-19T23:14:05.554Z,63.21
2018-07-19T23:16:33.889Z,62.98
2018-07-19T23:19:02.157Z,63.31
2018-07-19T23:21:30.437Z,63.38
2018-07-19T23:23:58.721Z,63.11
2018-07-19T23:26:27.084Z,63.22
2018-07-19T23:28:55.672Z,63.36
2018-07-19T23:31:24.050Z,63.18
2018-07-19T23:33:52.438Z,63.13
2018-07-19T23:36:24.029Z,63.33
2018-07-19T23:38:58.822Z,63.14
2018-07-19T23:41:35.468Z,63.42
2018-07-19T23:44:08.070Z,62.70
2018-07-19T23:46:40.738Z,62.83
2018-07-19T23:49:09.013Z,63.27
2018-07-19T23:51:38.162Z,62.65
2018-07-19T23:54:06.590Z,62.68
2018-07-19T23:56:35.173Z,62.79
2018-07-19T23:59:03.741Z,62.68
